Time;durP1;ratioP1;P1;durP2;ratioP2;P2;SDS_P1;SDS_P2;PMS_P1;PMS_P2;Temp;Humidity;BMP_temperature;BMP_pressure;BME280_temperature;BME280_humidity;BME280_pressure;Samples;Min_cycle;Max_cycle;Signal;HPM_P1;HPM_P2
2023/04/20 00:04:12;;;;;;;7.32;5.07;;;21.50;51.00;;;;;;10474265;28;20378;-26
2023/04/20 00:09:15;;;;;;;7.00;4.22;;;21.50;51.20;;;;;;10455625;28;20091;-25
2023/04/20 00:14:19;;;;;;;7.25;4.40;;;21.50;51.20;;;;;;10452727;28;20474;-33
2023/04/20 00:19:22;;;;;;;7.40;3.72;;;21.40;51.40;;;;;;10461968;28;20047;-27
2023/04/20 00:24:24;;;;;;;3.33;1.98;;;21.40;51.30;;;;;;10442202;28;20053;-27
2023/04/20 00:29:27;;;;;;;;;;;21.20;50.80;;;;;;10433434;28;20077;-25
2023/04/20 00:34:29;;;;;;;9.32;3.05;;;21.20;51.40;;;;;;10446752;28;20289;-26
2023/04/20 00:39:31;;;;;;;5.00;3.30;;;21.20;51.30;;;;;;10437309;28;20056;-30
2023/04/20 00:44:34;;;;;;;5.63;3.30;;;21.10;51.40;;;;;;10454719;28;20136;-26
2023/04/20 00:49:36;;;;;;;4.10;2.13;;;21.10;51.50;;;;;;10445330;28;20073;-25
2023/04/20 00:54:39;;;;;;;4.68;2.97;;;21.10;51.00;;;;;;10429639;28;20556;-25
2023/04/20 00:59:42;;;;;;;3.60;2.50;;;21.00;51.50;;;;;;10450191;28;20421;-24
2023/04/20 01:04:45;;;;;;;3.25;2.17;;;21.10;51.10;;;;;;10452126;28;20052;-27
2023/04/20 01:09:47;;;;;;;4.82;2.80;;;21.00;51.40;;;;;;10471502;28;20690;-26
2023/04/20 01:14:51;;;;;;;7.38;3.67;;;21.00;51.40;;;;;;10442037;28;20081;-30
2023/04/20 01:19:53;;;;;;;4.03;2.72;;;21.00;51.60;;;;;;10437325;28;20076;-25
2023/04/20 01:24:56;;;;;;;5.20;3.13;;;21.00;51.40;;;;;;10444724;28;20132;-28
2023/04/20 01:29:58;;;;;;;4.82;3.30;;;20.90;51.30;;;;;;10446694;28;20037;-25
2023/04/20 01:35:01;;;;;;;5.57;3.58;;;20.90;51.50;;;;;;10456101;28;20040;-28
2023/04/20 01:40:05;;;;;;;4.95;2.78;;;20.90;51.40;;;;;;10465448;28;20084;-26
2023/04/20 01:45:08;;;;;;;3.78;2.83;;;20.90;51.40;;;;;;10466200;28;20485;-30
2023/04/20 01:50:10;;;;;;;5.82;2.78;;;20.80;51.50;;;;;;10467916;28;20037;-25
2023/04/20 01:55:14;;;;;;;3.42;2.47;;;20.80;51.50;;;;;;10455588;28;20094;-30
2023/04/20 02:00:16;;;;;;;6.00;3.15;;;20.70;51.40;;;;;;10461710;28;20453;-25
2023/04/20 02:05:18;;;;;;;5.03;3.00;;;20.70;51.60;;;;;;10445779;28;20075;-25
2023/04/20 02:10:21;;;;;;;3.55;2.20;;;20.70;51.70;;;;;;10446724;28;20462;-27
2023/04/20 02:15:24;;;;;;;5.25;2.65;;;20.60;51.50;;;;;;10455420;28;20069;-26
2023/04/20 02:20:26;;;;;;;4.95;2.50;;;20.60;52.10;;;;;;10457702;28;20159;-26
2023/04/20 02:25:29;;;;;;;;;;;20.60;51.70;;;;;;10452360;28;20049;-25
2023/04/20 02:30:31;;;;;;;3.13;2.15;;;20.50;51.60;;;;;;10463947;28;19932;-26
2023/04/20 02:35:33;;;;;;;3.40;2.58;;;20.50;51.60;;;;;;10439348;28;20045;-28
2023/04/20 02:40:36;;;;;;;4.43;2.28;;;20.50;51.60;;;;;;10444896;28;20114;-24
2023/04/20 02:45:38;;;;;;;4.65;2.22;;;20.50;51.60;;;;;;10449731;28;20127;-25
2023/04/20 02:50:42;;;;;;;4.07;2.08;;;20.40;51.60;;;;;;10454958;28;20069;-26
2023/04/20 02:55:45;;;;;;;3.58;2.03;;;20.40;51.70;;;;;;10449122;28;20072;-26
2023/04/20 03:00:47;;;;;;;3.70;1.67;;;20.40;51.80;;;;;;10444857;28;20060;-25
2023/04/20 03:05:49;;;;;;;4.32;1.83;;;20.30;52.40;;;;;;10461346;28;20091;-26
2023/04/20 03:10:52;;;;;;;4.00;2.25;;;20.30;51.70;;;;;;10440868;28;20487;-26
2023/04/20 03:15:54;;;;;;;2.72;1.95;;;20.20;51.60;;;;;;10449116;28;20072;-26
2023/04/20 03:20:56;;;;;;;2.58;1.52;;;20.00;52.20;;;;;;10463245;28;20080;-27
2023/04/20 03:26:00;;;;;;;1.77;1.33;;;20.10;51.90;;;;;;10455520;28;20164;-24
2023/04/20 03:31:02;;;;;;;1.88;1.17;;;20.20;51.80;;;;;;10445007;28;20175;-27
2023/04/20 03:36:05;;;;;;;1.98;1.30;;;20.10;51.70;;;;;;10453124;28;20044;-25
2023/04/20 03:41:08;;;;;;;2.22;1.40;;;19.90;51.70;;;;;;10453657;28;20508;-26
2023/04/20 03:46:10;;;;;;;2.70;1.40;;;20.10;51.80;;;;;;10452555;28;20076;-23
2023/04/20 03:51:12;;;;;;;2.55;1.23;;;20.00;51.90;;;;;;10447020;28;20045;-25
2023/04/20 03:56:15;;;;;;;2.45;1.50;;;19.90;51.50;;;;;;10451525;28;20037;-26
2023/04/20 04:01:17;;;;;;;1.92;1.35;;;20.00;51.80;;;;;;10456086;28;20093;-26
2023/04/20 04:06:19;;;;;;;1.70;1.02;;;20.00;51.70;;;;;;10448924;28;20080;-26
2023/04/20 04:11:24;;;;;;;1.67;0.90;;;19.80;52.10;;;;;;10452895;28;20087;-25
2023/04/20 04:16:26;;;;;;;1.55;0.82;;;19.70;52.00;;;;;;10439795;28;20498;-27
2023/04/20 04:21:28;;;;;;;0.88;0.88;;;19.80;52.30;;;;;;10421770;28;20572;-26
2023/04/20 04:26:32;;;;;;;1.88;1.40;;;19.70;52.40;;;;;;10456617;28;20047;-26
2023/04/20 04:31:34;;;;;;;3.15;1.20;;;19.50;52.30;;;;;;10466213;28;20088;-25
2023/04/20 04:36:36;;;;;;;3.28;1.48;;;19.40;52.80;;;;;;10463094;28;20056;-26
2023/04/20 04:41:39;;;;;;;5.32;1.70;;;19.40;52.00;;;;;;10469782;28;20563;-25
2023/04/20 04:46:41;;;;;;;1.48;1.02;;;19.50;50.10;;;;;;10433520;28;20505;-30
2023/04/20 04:51:43;;;;;;;2.08;1.10;;;19.40;51.60;;;;;;10445355;28;20737;-24
2023/04/20 04:56:47;;;;;;;3.75;1.30;;;19.40;51.20;;;;;;10447064;28;20113;-24
2023/04/20 05:01:48;;;;;;;1.50;0.85;;;18.80;53.40;;;;;;10443240;28;20055;-28
2023/04/20 05:06:50;;;;;;;1.10;0.90;;;19.50;52.50;;;;;;10452770;28;20052;-26
2023/04/20 05:11:53;;;;;;;3.58;1.30;;;18.80;53.50;;;;;;10434531;28;20128;-26
2023/04/20 05:16:55;;;;;;;2.25;1.00;;;19.50;52.60;;;;;;10451667;28;20281;-26
2023/04/20 05:21:57;;;;;;;3.38;1.10;;;19.00;52.50;;;;;;10443983;28;20063;-25
2023/04/20 05:27:00;;;;;;;2.03;0.98;;;19.40;52.50;;;;;;10450255;28;20049;-29
2023/04/20 05:32:02;;;;;;;3.58;1.45;;;19.30;53.20;;;;;;10452081;28;20136;-26
2023/04/20 05:37:04;;;;;;;2.85;1.05;;;19.20;53.30;;;;;;10465396;28;20117;-25
2023/04/20 05:42:08;;;;;;;2.13;0.73;;;19.10;53.90;;;;;;10453429;28;20394;-23
2023/04/20 05:47:10;;;;;;;4.00;0.88;;;19.60;53.00;;;;;;10444552;28;20045;-27
2023/04/20 05:52:12;;;;;;;3.20;0.93;;;19.10;53.40;;;;;;10457511;28;20045;-26
2023/04/20 05:57:15;;;;;;;3.92;1.27;;;19.10;53.60;;;;;;10461781;28;20075;-28
2023/04/20 06:02:17;;;;;;;1.35;1.05;;;18.80;52.80;;;;;;10434135;28;20068;-25
2023/04/20 06:07:19;;;;;;;4.43;0.90;;;19.20;53.80;;;;;;10422386;28;20525;-23
2023/04/20 06:12:22;;;;;;;6.68;1.50;;;19.20;53.50;;;;;;10436826;28;20072;-24
2023/04/20 06:17:25;;;;;;;4.32;0.93;;;19.00;53.90;;;;;;10432899;28;20807;-24
2023/04/20 06:22:27;;;;;;;4.45;0.90;;;19.30;54.20;;;;;;10447343;28;20060;-30
2023/04/20 06:27:31;;;;;;;3.50;0.77;;;19.30;54.10;;;;;;10440156;28;20041;-27
2023/04/20 06:32:33;;;;;;;4.65;1.15;;;19.20;54.60;;;;;;10459100;28;20485;-26
2023/04/20 06:37:35;;;;;;;2.47;0.77;;;19.90;53.20;;;;;;10443830;28;20068;-25
2023/04/20 06:42:38;;;;;;;2.88;0.90;;;19.40;54.10;;;;;;10443544;28;20052;-25
2023/04/20 06:47:40;;;;;;;3.28;1.15;;;20.00;53.10;;;;;;10446074;28;20079;-25
2023/04/20 06:52:42;;;;;;;1.67;0.73;;;19.70;53.50;;;;;;10442105;28;20041;-26
2023/04/20 06:57:47;;;;;;;1.88;0.93;;;19.80;52.50;;;;;;10423779;28;20146;-24
2023/04/20 07:02:50;;;;;;;1.63;0.95;;;20.00;53.10;;;;;;10434117;28;20053;-25
2023/04/20 07:07:52;;;;;;;7.15;1.52;;;20.10;53.00;;;;;;10426005;28;20139;-25
2023/04/20 07:12:55;;;;;;;2.10;0.93;;;20.20;52.60;;;;;;10445404;28;20080;-26
2023/04/20 07:17:57;;;;;;;3.53;0.98;;;20.20;52.70;;;;;;10451838;28;20550;-25
2023/04/20 07:22:59;;;;;;;4.85;1.08;;;20.10;52.90;;;;;;10466136;28;20144;-27
2023/04/20 07:28:02;;;;;;;3.08;1.05;;;20.00;53.20;;;;;;10438328;28;20055;-25
2023/04/20 07:33:04;;;;;;;1.52;1.27;;;20.10;52.90;;;;;;10433356;28;20063;-26
2023/04/20 07:38:06;;;;;;;11.52;1.38;;;19.80;53.10;;;;;;10442416;28;20041;-26
2023/04/20 07:43:09;;;;;;;2.58;1.00;;;20.00;53.00;;;;;;10441163;28;20059;-25
2023/04/20 07:48:12;;;;;;;1.42;0.90;;;20.10;52.90;;;;;;10457623;28;20492;-27
2023/04/20 07:53:14;;;;;;;6.88;1.55;;;20.00;53.30;;;;;;10450713;28;20052;-26
2023/04/20 07:58:17;;;;;;;7.82;1.52;;;19.40;51.30;;;;;;10454470;28;20045;-26
2023/04/20 08:03:19;;;;;;;5.20;1.42;;;20.00;53.00;;;;;;10451223;28;20115;-25
2023/04/20 08:08:21;;;;;;;3.63;1.52;;;20.00;53.30;;;;;;10438198;28;20057;-25
2023/04/20 08:13:24;;;;;;;4.10;1.35;;;19.70;53.20;;;;;;10455648;28;20063;-26
2023/04/20 08:18:26;;;;;;;6.70;1.20;;;19.70;52.80;;;;;;10457218;28;20090;-25
2023/04/20 08:23:28;;;;;;;3.65;1.35;;;20.10;52.80;;;;;;10449069;28;20059;-28
2023/04/20 08:28:31;;;;;;;3.28;1.23;;;19.80;53.30;;;;;;10455888;28;20077;-25
2023/04/20 08:33:33;;;;;;;1.70;1.00;;;20.10;52.80;;;;;;10454026;28;20123;-27
2023/04/20 08:38:35;;;;;;;2.55;1.10;;;20.10;52.70;;;;;;10450047;28;20060;-27
2023/04/20 08:43:38;;;;;;;1.38;0.93;;;20.20;52.50;;;;;;10444344;28;20089;-25
2023/04/20 08:48:45;;;;;;;4.72;0.80;;;20.10;52.90;;;;;;10473357;28;20079;-27
2023/04/20 08:53:47;;;;;;;3.80;0.90;;;20.10;52.90;;;;;;10454641;28;20049;-25
2023/04/20 08:58:50;;;;;;;2.75;0.95;;;20.20;52.80;;;;;;10435920;28;20054;-25
2023/04/20 09:03:53;;;;;;;1.10;0.80;;;20.30;52.70;;;;;;10411415;28;20115;-25
2023/04/20 09:08:55;;;;;;;2.95;0.70;;;20.20;52.80;;;;;;10395894;28;20045;-27
2023/04/20 09:13:59;;;;;;;;;;;20.30;54.10;;;;;;10404235;28;20049;-26
2023/04/20 09:19:01;;;;;;;6.75;2.25;;;20.30;53.20;;;;;;10411063;28;19925;-25
2023/04/20 09:24:06;;;;;;;6.07;2.45;;;20.10;53.90;;;;;;10416428;28;20100;-27
2023/04/20 09:29:18;;;;;;;3.63;2.00;;;20.20;53.00;;;;;;10420495;28;20050;-27
2023/04/20 09:34:20;;;;;;;5.53;2.25;;;20.30;53.00;;;;;;10386978;28;20125;-24
2023/04/20 09:39:23;;;;;;;3.58;1.42;;;20.60;54.90;;;;;;10416576;28;20082;-24
2023/04/20 09:44:26;;;;;;;3.22;1.35;;;20.30;53.20;;;;;;10421690;28;20064;-25
2023/04/20 09:49:28;;;;;;;3.78;1.20;;;20.30;52.90;;;;;;10412597;28;20092;-25
2023/04/20 09:54:30;;;;;;;;;;;20.20;53.00;;;;;;10420477;28;20049;-27
2023/04/20 09:59:33;;;;;;;7.37;1.77;;;20.20;53.10;;;;;;10413510;28;19968;-24
2023/04/20 10:04:35;;;;;;;3.58;1.55;;;20.10;53.10;;;;;;10406768;28;20064;-25
2023/04/20 10:09:37;;;;;;;4.15;1.95;;;20.20;52.60;;;;;;10410348;28;20493;-25
2023/04/20 10:14:40;;;;;;;4.30;2.25;;;20.00;53.00;;;;;;10423355;28;20096;-24
2023/04/20 10:19:43;;;;;;;14.43;3.28;;;20.10;53.10;;;;;;10403667;28;20056;-24
2023/04/20 10:24:45;;;;;;;7.05;2.20;;;20.20;52.80;;;;;;10410689;28;20060;-24
2023/04/20 10:29:49;;;;;;;5.70;2.00;;;20.20;52.60;;;;;;10404386;28;20045;-26
2023/04/20 10:35:01;;;;;;;5.47;2.22;;;20.20;52.60;;;;;;10425439;28;20493;-26
2023/04/20 10:40:04;;;;;;;3.70;2.00;;;20.10;52.50;;;;;;10412784;28;20501;-23
2023/04/20 10:45:09;;;;;;;3.25;1.45;;;20.40;52.60;;;;;;10404213;28;20083;-24
2023/04/20 10:50:13;;;;;;;6.30;2.72;;;20.20;52.80;;;;;;10414342;28;21536;-23
2023/04/20 10:55:19;;;;;;;6.30;3.15;;;20.30;52.70;;;;;;10414657;28;20089;-24
2023/04/20 11:00:25;;;;;;;9.20;1.90;;;20.10;52.90;;;;;;10427068;28;20509;-25
2023/04/20 11:05:28;;;;;;;4.35;2.50;;;20.20;52.50;;;;;;10473078;28;20044;-24
2023/04/20 11:10:39;;;;;;;9.27;3.00;;;20.20;52.60;;;;;;10484296;28;20549;-25
2023/04/20 11:15:42;;;;;;;7.72;3.97;;;20.30;52.40;;;;;;10474895;28;20473;-25
2023/04/20 11:20:51;;;;;;;8.50;4.03;;;20.30;52.30;;;;;;10480898;28;20401;-25
2023/04/20 11:25:55;;;;;;;4.07;2.15;;;20.10;52.40;;;;;;10476331;28;20055;-25
2023/04/20 11:30:58;;;;;;;2.92;1.65;;;20.20;51.90;;;;;;10485650;28;20157;-24
2023/04/20 11:36:01;;;;;;;4.50;1.98;;;20.10;52.30;;;;;;10487853;28;20044;-25
2023/04/20 11:41:06;;;;;;;3.22;1.45;;;20.20;52.60;;;;;;10477645;28;20049;-25
2023/04/20 11:46:15;;;;;;;4.05;2.35;;;19.90;52.10;;;;;;10472149;28;20047;-23
2023/04/20 11:51:17;;;;;;;4.55;1.90;;;20.00;52.30;;;;;;10477035;28;20135;-25
2023/04/20 11:56:19;;;;;;;8.68;3.63;;;20.40;52.20;;;;;;10479777;28;20080;-25
2023/04/20 12:01:23;;;;;;;5.88;2.97;;;20.30;52.40;;;;;;10489861;28;20060;-24
2023/04/20 12:06:26;;;;;;;6.18;2.75;;;20.20;53.20;;;;;;10475487;28;20155;-26
2023/04/20 12:11:27;;;;;;;;;;;20.50;51.90;;;;;;10488637;28;20096;-26
2023/04/20 12:16:30;;;;;;;7.83;3.77;;;20.10;51.90;;;;;;10484823;28;19968;-22
2023/04/20 12:21:32;;;;;;;6.47;3.10;;;20.20;52.60;;;;;;10482481;28;20073;-25
2023/04/20 12:26:35;;;;;;;4.88;2.65;;;20.30;50.10;;;;;;10482447;28;20493;-24
2023/04/20 12:31:39;;;;;;;6.00;3.25;;;20.80;50.80;;;;;;10483662;28;20041;-25
2023/04/20 12:36:40;;;;;;;9.27;4.97;;;20.90;50.80;;;;;;10486180;28;20041;-24
2023/04/20 12:41:43;;;;;;;8.23;4.32;;;20.70;52.00;;;;;;10485292;28;20132;-26
2023/04/20 12:46:46;;;;;;;;;;;20.60;52.00;;;;;;10477130;28;20685;-24
2023/04/20 12:51:48;;;;;;;4.82;3.08;;;20.80;51.60;;;;;;10493854;28;19928;-25
2023/04/20 12:56:50;;;;;;;7.05;3.25;;;20.20;49.60;;;;;;10481499;28;20482;-25
2023/04/20 13:01:53;;;;;;;6.38;3.33;;;20.60;52.70;;;;;;10470841;28;20049;-25
2023/04/20 13:06:55;;;;;;;8.40;4.32;;;20.50;51.40;;;;;;10488070;28;20049;-26
2023/04/20 13:11:57;;;;;;;8.07;4.63;;;20.90;51.80;;;;;;10484746;28;20080;-27
2023/04/20 13:17:01;;;;;;;8.05;3.72;;;21.00;51.20;;;;;;10485761;28;20040;-26
2023/04/20 13:22:03;;;;;;;4.82;2.53;;;21.00;51.70;;;;;;10479849;28;20156;-26
2023/04/20 13:27:05;;;;;;;7.70;3.20;;;21.10;51.40;;;;;;10475272;28;20057;-27
2023/04/20 13:32:09;;;;;;;9.48;3.67;;;20.90;51.50;;;;;;10500138;28;20159;-28
2023/04/20 13:37:12;;;;;;;6.32;3.63;;;20.90;52.00;;;;;;10476425;28;20061;-26
2023/04/20 13:42:13;;;;;;;8.32;3.38;;;20.90;52.20;;;;;;10474186;28;20092;-27
2023/04/20 13:47:17;;;;;;;6.82;3.85;;;20.80;51.80;;;;;;10495148;28;20486;-31
2023/04/20 13:52:19;;;;;;;10.70;4.00;;;21.00;52.50;;;;;;10483021;28;20044;-31
2023/04/20 13:57:21;;;;;;;6.53;3.53;;;21.60;51.60;;;;;;10480074;28;20131;-29
2023/04/20 14:02:24;;;;;;;7.93;3.38;;;21.10;51.40;;;;;;10451303;28;20144;-28
2023/04/20 14:07:26;;;;;;;10.70;3.55;;;21.20;51.40;;;;;;10435188;28;20055;-28
2023/04/20 14:12:28;;;;;;;10.15;3.47;;;21.30;51.30;;;;;;10448628;28;20085;-28
2023/04/20 14:17:31;;;;;;;7.85;3.22;;;21.30;51.20;;;;;;10463506;28;20203;-32
2023/04/20 14:22:35;;;;;;;9.60;2.70;;;21.30;51.40;;;;;;10442280;28;20050;-27
2023/04/20 14:27:37;;;;;;;7.85;4.38;;;21.10;51.50;;;;;;10443264;28;20045;-27
2023/04/20 14:32:41;;;;;;;4.55;2.47;;;21.40;51.10;;;;;;10474961;28;20087;-28
2023/04/20 14:37:43;;;;;;;6.55;2.90;;;21.30;51.60;;;;;;10458738;28;20132;-28
2023/04/20 14:42:45;;;;;;;5.55;2.25;;;21.40;51.10;;;;;;10448521;28;20119;-28
2023/04/20 14:47:52;;;;;;;5.93;2.45;;;21.60;51.10;;;;;;10439717;28;20135;-27
2023/04/20 14:52:55;;;;;;;5.22;3.00;;;21.70;51.00;;;;;;10432151;28;20139;-31
2023/04/20 14:57:57;;;;;;;11.25;4.28;;;21.40;51.90;;;;;;10442546;28;20085;-26
2023/04/20 15:03:01;;;;;;;16.08;4.72;;;21.50;51.90;;;;;;10504475;28;20052;-28
2023/04/20 15:08:03;;;;;;;7.15;3.15;;;21.50;51.70;;;;;;10500285;28;20151;-30
2023/04/20 15:13:05;;;;;;;6.72;2.67;;;21.50;51.70;;;;;;10501490;28;20478;-32
2023/04/20 15:18:09;;;;;;;7.65;2.13;;;21.60;51.60;;;;;;10478482;28;20037;-27
2023/04/20 15:23:11;;;;;;;6.88;2.78;;;21.40;51.60;;;;;;10490761;28;20060;-28
2023/04/20 15:28:13;;;;;;;4.95;1.70;;;21.70;51.40;;;;;;10483693;28;20097;-26
2023/04/20 15:33:16;;;;;;;10.23;1.95;;;21.70;51.40;;;;;;10487486;28;20045;-28
2023/04/20 15:38:18;;;;;;;5.47;2.60;;;21.80;53.60;;;;;;10493469;28;20044;-24
2023/04/20 15:43:20;;;;;;;10.82;3.15;;;22.00;54.20;;;;;;10487149;28;20086;-26
2023/04/20 15:48:23;;;;;;;10.55;3.13;;;21.80;52.30;;;;;;10486262;28;20075;-27
2023/04/20 15:53:25;;;;;;;7.32;2.88;;;22.00;51.60;;;;;;10458539;28;20142;-26
2023/04/20 15:58:27;;;;;;;5.22;2.63;;;21.60;52.00;;;;;;10464747;28;20140;-29
2023/04/20 16:03:30;;;;;;;7.03;2.60;;;21.70;51.60;;;;;;10467301;28;20139;-25
2023/04/20 16:08:32;;;;;;;7.07;2.13;;;21.80;51.50;;;;;;10489238;28;20175;-27
2023/04/20 16:13:35;;;;;;;14.95;2.75;;;21.90;51.20;;;;;;10472552;28;20049;-28
2023/04/20 16:18:38;;;;;;;6.38;2.15;;;22.00;51.10;;;;;;10466711;28;20124;-27
2023/04/20 16:23:40;;;;;;;7.20;2.67;;;21.80;50.80;;;;;;10483153;28;20056;-26
2023/04/20 16:28:42;;;;;;;4.13;1.42;;;22.00;50.90;;;;;;10475317;28;20049;-26
2023/04/20 16:33:45;;;;;;;6.50;1.90;;;22.00;50.90;;;;;;10500736;28;20127;-28
2023/04/20 16:38:47;;;;;;;9.02;3.17;;;22.00;51.00;;;;;;10481619;28;20171;-29
2023/04/20 16:43:49;;;;;;;4.78;2.10;;;22.00;50.90;;;;;;10476907;28;20049;-28
2023/04/20 16:48:53;;;;;;;4.95;2.60;;;22.00;51.00;;;;;;10485768;28;20052;-26
2023/04/20 16:53:55;;;;;;;5.50;2.10;;;22.00;50.60;;;;;;10479845;28;20099;-29
2023/04/20 16:58:57;;;;;;;8.73;1.75;;;22.10;50.60;;;;;;10478816;28;20049;-28
2023/04/20 17:04:00;;;;;;;5.82;2.25;;;22.10;51.70;;;;;;10479270;28;20045;-26
2023/04/20 17:09:05;;;;;;;6.00;2.28;;;22.10;50.90;;;;;;10500104;28;20089;-26
2023/04/20 17:14:08;;;;;;;7.85;2.65;;;22.20;51.50;;;;;;10494476;28;20095;-26
2023/04/20 17:19:11;;;;;;;10.70;3.45;;;22.30;50.70;;;;;;10489438;28;20059;-28
2023/04/20 17:24:13;;;;;;;8.55;3.28;;;22.50;50.10;;;;;;10476988;28;20098;-27
2023/04/20 17:29:15;;;;;;;12.23;4.07;;;22.60;50.00;;;;;;10479655;28;20044;-26
2023/04/20 17:34:18;;;;;;;11.10;4.32;;;22.50;50.60;;;;;;10488091;28;20051;-24
2023/04/20 17:39:21;;;;;;;11.70;3.45;;;22.90;50.90;;;;;;10494971;28;20053;-24
2023/04/20 17:44:23;;;;;;;11.48;3.22;;;22.90;51.70;;;;;;10468357;28;20081;-24
2023/04/20 17:49:27;;;;;;;9.55;3.50;;;22.90;53.10;;;;;;10483161;28;20450;-25
2023/04/20 17:54:29;;;;;;;11.40;4.80;;;22.90;55.80;;;;;;10477160;28;20076;-25
2023/04/20 17:59:31;;;;;;;9.38;4.40;;;23.00;53.00;;;;;;10472913;28;20140;-24
2023/04/20 18:04:34;;;;;;;9.68;4.20;;;22.80;53.70;;;;;;10489344;28;20151;-24
2023/04/20 18:09:37;;;;;;;12.98;4.03;;;22.70;52.60;;;;;;10482465;28;21287;-25
2023/04/20 18:14:41;;;;;;;8.93;3.20;;;22.80;53.50;;;;;;10488335;28;20049;-23
2023/04/20 18:19:44;;;;;;;9.30;3.00;;;22.90;52.90;;;;;;10466037;28;20102;-24
2023/04/20 18:24:46;;;;;;;3.92;2.85;;;22.80;54.50;;;;;;10470417;28;20047;-24
2023/04/20 18:29:49;;;;;;;7.93;2.90;;;22.90;59.00;;;;;;10475548;28;20414;-25
2023/04/20 18:34:52;;;;;;;6.78;3.22;;;22.80;53.70;;;;;;10483140;28;20052;-25
2023/04/20 18:39:54;;;;;;;9.13;5.05;;;22.70;53.90;;;;;;10485631;28;20059;-26
2023/04/20 18:44:56;;;;;;;9.85;4.97;;;22.60;53.30;;;;;;10477167;28;20056;-25
2023/04/20 18:50:00;;;;;;;20.38;7.03;;;22.40;54.90;;;;;;10461979;28;20053;-25
2023/04/20 18:55:02;;;;;;;14.77;7.50;;;22.60;53.60;;;;;;10453077;28;20081;-25
2023/04/20 19:00:07;;;;;;;14.55;6.80;;;22.50;55.80;;;;;;10484548;28;20111;-23
2023/04/20 19:05:11;;;;;;;20.65;8.88;;;22.50;54.70;;;;;;10472536;28;20452;-23
2023/04/20 19:10:13;;;;;;;23.63;10.43;;;22.50;54.40;;;;;;10476058;28;20081;-25
2023/04/20 19:15:15;;;;;;;21.40;10.48;;;22.40;55.20;;;;;;10479584;28;20944;-24
2023/04/20 19:20:18;;;;;;;22.05;10.43;;;22.40;55.10;;;;;;10470534;28;20076;-25
2023/04/20 19:25:20;;;;;;;24.77;11.80;;;22.40;55.30;;;;;;10486936;28;20071;-24
2023/04/20 19:30:22;;;;;;;24.98;11.45;;;22.20;54.80;;;;;;10475610;28;20080;-23
2023/04/20 19:35:25;;;;;;;24.08;10.07;;;22.10;55.40;;;;;;10481429;28;20048;-22
2023/04/20 19:40:27;;;;;;;25.48;12.55;;;22.10;54.60;;;;;;10455880;28;20049;-25
2023/04/20 19:45:29;;;;;;;;;;;22.10;54.60;;;;;;10461210;28;20052;-25
2023/04/20 19:50:32;;;;;;;25.23;10.17;;;21.90;54.70;;;;;;10470582;28;20404;-24
2023/04/20 19:55:34;;;;;;;21.90;11.30;;;21.90;54.70;;;;;;10476217;28;20174;-24
2023/04/20 20:00:37;;;;;;;22.25;11.13;;;21.80;55.50;;;;;;10487695;28;20390;-25
2023/04/20 20:05:41;;;;;;;20.80;11.18;;;21.70;54.70;;;;;;10484996;28;20080;-24
2023/04/20 20:10:43;;;;;;;20.58;11.07;;;21.70;54.60;;;;;;10465502;28;20049;-25
2023/04/20 20:15:45;;;;;;;20.58;10.60;;;21.60;54.80;;;;;;10475610;28;20064;-25
2023/04/20 20:20:50;;;;;;;22.40;12.13;;;21.40;55.10;;;;;;10479162;28;20406;-25
2023/04/20 20:25:52;;;;;;;20.40;10.60;;;21.40;54.60;;;;;;10492525;28;20591;-25
2023/04/20 20:30:54;;;;;;;;;;;21.20;55.10;;;;;;10476690;28;20045;-24
2023/04/20 20:35:57;;;;;;;22.13;10.95;;;21.20;54.60;;;;;;10466471;28;19928;-25
2023/04/20 20:40:59;;;;;;;20.27;10.63;;;21.20;54.90;;;;;;10478372;28;20140;-23
2023/04/20 20:46:01;;;;;;;22.92;11.05;;;21.30;54.70;;;;;;10471554;28;20101;-23
2023/04/20 20:51:05;;;;;;;24.95;10.48;;;21.60;53.50;;;;;;10475149;28;20063;-23
2023/04/20 20:56:07;;;;;;;17.20;8.93;;;21.60;53.30;;;;;;10465667;28;20040;-24
2023/04/20 21:01:09;;;;;;;19.15;8.43;;;21.60;53.20;;;;;;10465660;28;20076;-23
2023/04/20 21:06:12;;;;;;;17.75;8.95;;;21.70;53.10;;;;;;10474302;28;20056;-24
2023/04/20 21:11:14;;;;;;;15.75;7.97;;;21.60;53.20;;;;;;10477897;28;20147;-23
2023/04/20 21:16:16;;;;;;;19.40;10.18;;;21.10;53.90;;;;;;10477378;28;20045;-23
2023/04/20 21:21:19;;;;;;;15.88;9.70;;;20.50;54.80;;;;;;10489824;28;20043;-25
2023/04/20 21:26:21;;;;;;;13.45;7.18;;;21.20;53.90;;;;;;10503012;28;20138;-24
2023/04/20 21:31:23;;;;;;;12.73;6.93;;;21.40;53.50;;;;;;10489496;28;20145;-24
2023/04/20 21:36:26;;;;;;;13.50;5.40;;;21.30;53.40;;;;;;10491427;28;20083;-24
2023/04/20 21:41:28;;;;;;;10.65;6.38;;;21.20;53.50;;;;;;10476674;28;20131;-24
2023/04/20 21:46:30;;;;;;;11.60;6.82;;;21.30;53.40;;;;;;10477538;28;20134;-25
2023/04/20 21:51:33;;;;;;;12.75;5.82;;;21.30;53.40;;;;;;10495494;28;20539;-24
2023/04/20 21:56:35;;;;;;;11.70;6.35;;;21.20;53.40;;;;;;10477553;28;20131;-24
2023/04/20 22:01:37;;;;;;;11.10;5.97;;;21.20;53.50;;;;;;10483263;28;20501;-25
2023/04/20 22:06:40;;;;;;;10.70;5.90;;;21.10;53.50;;;;;;10495681;28;20084;-24
2023/04/20 22:11:42;;;;;;;11.02;5.82;;;21.10;53.50;;;;;;10481706;28;20060;-24
2023/04/20 22:16:44;;;;;;;13.07;6.75;;;21.20;53.60;;;;;;10494890;28;20044;-25
2023/04/20 22:21:48;;;;;;;13.50;6.72;;;21.10;53.60;;;;;;10486249;28;20114;-23
2023/04/20 22:26:49;;;;;;;12.43;6.45;;;21.10;53.50;;;;;;10465912;28;20413;-23
2023/04/20 22:31:51;;;;;;;11.68;6.07;;;21.00;53.50;;;;;;10498668;28;20122;-24
2023/04/20 22:36:54;;;;;;;5.43;3.33;;;21.00;53.50;;;;;;10487764;28;20076;-24
2023/04/20 22:41:56;;;;;;;10.77;5.13;;;21.00;53.60;;;;;;10473076;28;20044;-23
2023/04/20 22:46:58;;;;;;;9.32;5.05;;;21.00;53.60;;;;;;10469645;28;20493;-23
2023/04/20 22:52:02;;;;;;;8.93;4.75;;;20.90;53.70;;;;;;10486272;28;20653;-25
2023/04/20 22:57:05;;;;;;;8.70;5.32;;;20.90;53.50;;;;;;10469062;28;20422;-21
2023/04/20 23:02:06;;;;;;;;;;;20.90;53.50;;;;;;10484597;28;20045;-23
2023/04/20 23:07:11;;;;;;;6.82;3.33;;;20.90;53.50;;;;;;10471642;28;20691;-24
2023/04/20 23:12:13;;;;;;;8.63;4.93;;;20.80;53.50;;;;;;10488832;28;20040;-25
2023/04/20 23:17:15;;;;;;;11.50;6.40;;;20.90;53.60;;;;;;10493248;28;20448;-24
2023/04/20 23:22:18;;;;;;;10.57;4.78;;;20.90;53.60;;;;;;10478133;28;20049;-24
2023/04/20 23:27:20;;;;;;;13.32;7.18;;;20.70;53.50;;;;;;10486759;28;20480;-24
2023/04/20 23:32:22;;;;;;;7.90;4.88;;;20.80;53.50;;;;;;10476776;28;20048;-24
2023/04/20 23:37:25;;;;;;;5.10;3.63;;;20.80;53.50;;;;;;10468164;28;20120;-25
2023/04/20 23:42:27;;;;;;;9.32;5.15;;;20.70;53.50;;;;;;10481590;28;20122;-24
2023/04/20 23:47:28;;;;;;;11.25;6.57;;;20.70;53.50;;;;;;10475118;28;20159;-25
2023/04/20 23:52:32;;;;;;;9.82;4.78;;;20.70;53.60;;;;;;10479500;28;20055;-25
2023/04/20 23:57:34;;;;;;;12.52;6.38;;;20.60;53.60;;;;;;10481133;28;20087;-23
